ASN logo
ASN Wikibase Occurrence # 174310
Last updated: 3 September 2019
This information is added by users of ASN. Neither ASN nor the Flight Safety Foundation are responsible for the completeness or correctness of this information. If you feel this information is incomplete or incorrect, you can submit corrected information.
This accident is missing citations or reference sources. Please help add citations to guard against copyright violations and factual inaccuracies.

Date:06-MAR-2015
Time:c. 13:15 LT
Type:Silhouette image of generic C208 model; specific model in this crash may look slightly different
Cessna 208
Owner/operator:
Registration:
C/n / msn:
Fatalities:Fatalities: 0 / Occupants:
Other fatalities:0
Aircraft damage: Unknown
Location:San Josť-Juan Santamaria International Airport (SJO/MROC) -   Costa Rica
Phase: Unknown
Nature:Unknown
Departure airport:
Destination airport:
Narrative:
A Cessna 208 is reported to have suffered a broke undercarriage at San Josť-Juan Santamaria International Airport (SJO/MROC), Costa Rica.
RWY 07/25 was notamed closed.

Weather conditions about the time of the incident (19:15 Z / 13:15 LT):
MROC 061900Z 07015G25KT CAVOK 30/10 A2997 NOSIG
MROC 062000Z 06018G28KT 9999 FEW045 30/12 A2995 NOSIG

Sources:


Revision history:

Date/timeContributorUpdates
06-Mar-2015 19:46 harro Added
06-Mar-2015 19:47 harro Updated [Time, Narrative]
06-Mar-2015 19:58 harro Updated [Embed code]
06-Mar-2015 19:59 harro Updated [Embed code, Narrative]
06-Mar-2015 20:04 harro Updated [Time, Total fatalities, Other fatalities, Narrative]

Corrections or additions? ... Edit this accident description